Time;durP1;ratioP1;P1;durP2;ratioP2;P2;SDS_P1;SDS_P2;PMS_P1;PMS_P2;Temp;Humidity;BMP_temperature;BMP_pressure;BME280_temperature;BME280_humidity;BME280_pressure;Samples;Min_cycle;Max_cycle;Signal;HPM_P1;HPM_P2
2021/06/19 00:00:36;;;;;;;6.40;5.13;;;24.00;85.50;;;;;;5037328;28;20156;-80
2021/06/19 00:03:03;;;;;;;7.63;5.10;;;24.00;85.70;;;;;;5037665;28;20107;-79
2021/06/19 00:05:29;;;;;;;6.43;5.32;;;24.00;85.70;;;;;;5037199;28;20049;-79
2021/06/19 00:07:55;;;;;;;6.53;5.28;;;24.00;85.80;;;;;;5036276;28;20126;-79
2021/06/19 00:10:22;;;;;;;6.05;5.03;;;23.90;86.30;;;;;;5037258;28;20037;-79
2021/06/19 00:12:49;;;;;;;5.95;5.22;;;23.90;86.00;;;;;;5037180;28;20067;-80
2021/06/19 00:15:16;;;;;;;6.47;4.75;;;23.90;85.90;;;;;;5037366;28;20041;-80
2021/06/19 00:17:42;;;;;;;8.07;6.40;;;23.90;85.90;;;;;;5036209;28;20377;-80
2021/06/19 00:20:14;;;;;;;7.05;5.03;;;23.80;86.00;;;;;;5036591;28;20048;-79
2021/06/19 00:22:41;;;;;;;6.57;4.57;;;23.80;86.00;;;;;;5037431;28;20041;-80
2021/06/19 00:25:08;;;;;;;7.45;5.28;;;23.80;86.00;;;;;;5036949;28;20052;-80
2021/06/19 00:27:34;;;;;;;9.13;6.05;;;23.80;86.20;;;;;;5037390;28;20044;-80
2021/06/19 00:29:59;;;;;;;8.90;5.45;;;23.80;85.90;;;;;;5037014;28;20049;-80
2021/06/19 00:32:25;;;;;;;8.38;4.95;;;23.70;85.80;;;;;;5037393;28;20045;-79
2021/06/19 00:34:51;;;;;;;6.82;5.40;;;23.70;85.60;;;;;;5036625;28;20120;-80
2021/06/19 00:37:17;;;;;;;5.30;4.80;;;23.80;85.80;;;;;;5036518;28;20041;-80
2021/06/19 00:39:42;;;;;;;5.30;4.70;;;23.80;85.50;;;;;;5036514;28;20542;-80
2021/06/19 00:42:08;;;;;;;7.15;4.50;;;23.80;85.50;;;;;;5037058;28;20075;-80
2021/06/19 00:44:33;;;;;;;4.47;4.00;;;23.70;84.80;;;;;;5036796;28;20083;-80
2021/06/19 00:47:00;;;;;;;4.57;3.88;;;23.80;83.40;;;;;;5036013;28;20053;-80
2021/06/19 00:49:26;;;;;;;5.30;4.50;;;23.80;82.90;;;;;;5036595;28;20636;-80
2021/06/19 00:51:52;;;;;;;5.35;3.60;;;23.80;82.40;;;;;;5036225;28;20297;-80
2021/06/19 00:54:18;;;;;;;5.25;3.85;;;23.90;82.30;;;;;;5036386;28;20049;-80
2021/06/19 00:56:45;;;;;;;4.82;3.22;;;24.00;81.90;;;;;;5036262;28;20048;-79
2021/06/19 00:59:11;;;;;;;5.30;3.53;;;24.00;81.50;;;;;;5036568;28;20049;-81
2021/06/19 01:01:37;;;;;;;7.07;3.90;;;24.10;81.30;;;;;;5036369;28;20067;-81
2021/06/19 01:04:04;;;;;;;4.03;3.63;;;24.10;81.30;;;;;;5036771;28;20044;-80
2021/06/19 01:06:32;;;;;;;7.78;4.32;;;24.10;81.10;;;;;;5035572;28;20051;-80
2021/06/19 01:08:58;;;;;;;6.45;4.05;;;24.10;81.40;;;;;;5035845;28;20083;-80
2021/06/19 01:11:25;;;;;;;4.07;3.58;;;24.20;81.40;;;;;;5035805;28;20041;-80
2021/06/19 01:13:52;;;;;;;4.97;3.42;;;24.20;80.70;;;;;;5035956;28;20037;-80
2021/06/19 01:16:19;;;;;;;5.35;3.67;;;24.20;80.60;;;;;;5035559;28;20041;-80
2021/06/19 01:18:46;;;;;;;7.38;3.22;;;24.20;80.70;;;;;;5035296;28;20542;-80
2021/06/19 01:21:14;;;;;;;5.50;3.53;;;24.20;80.60;;;;;;5035134;28;20107;-80
2021/06/19 01:23:40;;;;;;;8.48;3.80;;;24.20;80.30;;;;;;5034836;28;20033;-80
2021/06/19 01:26:05;;;;;;;4.35;3.70;;;24.20;80.10;;;;;;5035772;28;20033;-80
2021/06/19 01:28:31;;;;;;;5.57;3.35;;;24.20;79.90;;;;;;5036409;28;20128;-80
2021/06/19 01:30:56;;;;;;;5.35;3.08;;;24.20;79.70;;;;;;5035792;28;20103;-80
2021/06/19 01:33:22;;;;;;;4.63;3.80;;;24.20;79.90;;;;;;5035408;28;20047;-80
2021/06/19 01:35:47;;;;;;;3.90;3.50;;;24.20;80.30;;;;;;5035763;28;20370;-80
2021/06/19 01:38:12;;;;;;;4.30;3.80;;;24.10;80.40;;;;;;5036550;28;20098;-80
2021/06/19 01:40:38;;;;;;;6.32;3.60;;;24.10;80.00;;;;;;5036034;28;20029;-80
2021/06/19 01:43:04;;;;;;;4.53;3.50;;;24.10;79.70;;;;;;5041738;28;20344;-81
2021/06/19 01:45:32;;;;;;;4.30;3.42;;;24.10;79.60;;;;;;5047981;28;20041;-80
2021/06/19 01:48:03;;;;;;;3.75;3.38;;;24.10;79.30;;;;;;5039388;28;20544;-80
2021/06/19 01:50:30;;;;;;;3.83;3.38;;;24.10;79.30;;;;;;5040211;28;20045;-80
2021/06/19 01:52:55;;;;;;;4.43;3.42;;;24.10;79.10;;;;;;5041051;28;20045;-80
2021/06/19 01:55:21;;;;;;;4.35;3.88;;;24.10;79.20;;;;;;5044719;28;20041;-81
2021/06/19 01:57:50;;;;;;;3.80;3.35;;;24.10;79.50;;;;;;5041878;28;20113;-80
2021/06/19 02:00:35;;;;;;;5.22;3.28;;;24.10;79.90;;;;;;5039573;28;20049;-80
2021/06/19 02:03:01;;;;;;;5.65;3.97;;;24.10;79.50;;;;;;5039244;28;20042;-80
2021/06/19 02:05:28;;;;;;;3.63;2.85;;;24.00;79.50;;;;;;5039824;28;20041;-80
2021/06/19 02:07:59;;;;;;;3.80;3.38;;;24.10;79.50;;;;;;5039359;28;20397;-81
2021/06/19 02:10:30;;;;;;;8.55;3.78;;;24.00;79.70;;;;;;5039727;28;20037;-80
2021/06/19 02:12:57;;;;;;;10.88;4.10;;;24.00;80.00;;;;;;5039205;28;20271;-80
2021/06/19 02:15:24;;;;;;;8.38;4.20;;;24.00;80.00;;;;;;5039208;28;20029;-80
2021/06/19 02:17:49;;;;;;;5.15;3.92;;;24.00;80.00;;;;;;5038725;28;20037;-80
2021/06/19 02:20:19;;;;;;;4.82;3.95;;;23.90;80.30;;;;;;5039287;28;20030;-80
2021/06/19 02:22:44;;;;;;;5.78;3.67;;;23.90;80.00;;;;;;5037986;28;20380;-80
2021/06/19 02:25:13;;;;;;;4.13;3.67;;;23.90;80.20;;;;;;5038649;28;20131;-81
2021/06/19 02:27:56;;;;;;;5.85;3.85;;;23.90;80.10;;;;;;5039255;28;20389;-80
2021/06/19 02:30:28;;;;;;;4.15;3.38;;;23.80;80.20;;;;;;5039382;28;20029;-80
2021/06/19 02:32:54;;;;;;;5.28;4.38;;;23.80;80.30;;;;;;5038101;28;20041;-80
2021/06/19 02:35:22;;;;;;;4.90;3.38;;;23.80;80.60;;;;;;5039302;28;20037;-80
2021/06/19 02:37:48;;;;;;;5.32;3.17;;;23.80;80.70;;;;;;5038579;28;20044;-80
2021/06/19 02:40:14;;;;;;;5.00;3.90;;;23.70;80.60;;;;;;5038816;28;20041;-80
2021/06/19 02:42:40;;;;;;;4.05;3.60;;;23.70;80.80;;;;;;5038241;28;20207;-80
2021/06/19 02:45:12;;;;;;;5.47;3.63;;;23.70;81.00;;;;;;5038435;28;20128;-78
2021/06/19 02:47:40;;;;;;;6.70;4.20;;;23.60;81.00;;;;;;5038758;28;20038;-81
2021/06/19 02:50:07;;;;;;;4.10;3.70;;;23.60;81.20;;;;;;5038791;28;20045;-80
2021/06/19 02:52:33;;;;;;;4.40;3.90;;;23.60;81.70;;;;;;5038065;28;20128;-80
2021/06/19 02:54:59;;;;;;;5.53;3.60;;;23.50;81.60;;;;;;5037867;28;20033;-80
2021/06/19 02:57:24;;;;;;;7.22;4.00;;;23.50;81.80;;;;;;5037929;28;20083;-79
2021/06/19 02:59:50;;;;;;;4.80;3.72;;;23.50;82.00;;;;;;5037629;28;20459;-78
2021/06/19 03:02:15;;;;;;;3.92;3.40;;;23.40;82.30;;;;;;5037924;28;20049;-79
2021/06/19 03:04:41;;;;;;;4.82;4.05;;;23.40;82.40;;;;;;5038654;28;20413;-78
2021/06/19 03:07:06;;;;;;;5.40;3.95;;;23.40;82.50;;;;;;5038269;28;20048;-79
2021/06/19 03:09:32;;;;;;;6.13;3.45;;;23.40;82.40;;;;;;5037855;28;20052;-79
2021/06/19 03:11:57;;;;;;;4.40;3.70;;;23.40;82.50;;;;;;5038104;28;20404;-78
2021/06/19 03:14:23;;;;;;;4.70;4.00;;;23.30;82.80;;;;;;5037446;28;20112;-79
2021/06/19 03:16:48;;;;;;;5.78;3.70;;;23.30;83.10;;;;;;5038457;28;20333;-79
2021/06/19 03:19:14;;;;;;;4.97;3.72;;;23.30;83.10;;;;;;5038338;28;20061;-79
2021/06/19 03:21:42;;;;;;;5.45;4.20;;;23.30;83.30;;;;;;5038392;28;20048;-79
2021/06/19 03:24:08;;;;;;;5.68;4.25;;;23.30;83.40;;;;;;5038391;28;20042;-79
2021/06/19 03:26:34;;;;;;;4.70;4.20;;;23.30;83.10;;;;;;5038414;28;20242;-79
2021/06/19 03:28:59;;;;;;;8.35;4.68;;;23.30;83.20;;;;;;5038109;28;20312;-79
2021/06/19 03:31:27;;;;;;;4.53;3.92;;;23.30;83.30;;;;;;5037035;28;20079;-78
2021/06/19 03:33:52;;;;;;;4.15;3.60;;;23.30;83.40;;;;;;5036911;28;20389;-78
2021/06/19 03:36:18;;;;;;;5.55;4.20;;;23.30;83.40;;;;;;5037652;28;20124;-78
2021/06/19 03:38:43;;;;;;;7.70;4.32;;;23.30;83.00;;;;;;5037904;28;20099;-79
2021/06/19 03:41:08;;;;;;;4.70;4.18;;;23.40;83.00;;;;;;5036702;28;20102;-79
2021/06/19 03:43:34;;;;;;;6.45;4.30;;;23.40;83.10;;;;;;5038211;28;20454;-79
2021/06/19 03:45:59;;;;;;;4.82;4.32;;;23.40;83.40;;;;;;5037403;28;20037;-79
2021/06/19 03:48:25;;;;;;;6.00;4.43;;;23.40;83.50;;;;;;5037384;28;20401;-78
2021/06/19 03:50:51;;;;;;;5.25;4.53;;;23.40;83.60;;;;;;5037451;28;20033;-79
2021/06/19 03:53:16;;;;;;;9.25;4.22;;;23.40;83.50;;;;;;5037809;28;20160;-79
2021/06/19 03:55:42;;;;;;;5.22;4.22;;;23.50;83.70;;;;;;5038127;28;20041;-79
2021/06/19 03:58:08;;;;;;;5.10;4.15;;;23.50;83.70;;;;;;5036704;28;20033;-79
2021/06/19 04:00:33;;;;;;;5.38;4.57;;;23.50;83.50;;;;;;5037777;28;20041;-79
2021/06/19 04:02:59;;;;;;;4.20;3.80;;;23.50;83.30;;;;;;5037411;28;20343;-79
2021/06/19 04:05:25;;;;;;;7.32;4.30;;;23.60;83.40;;;;;;5037117;28;20347;-80
2021/06/19 04:07:51;;;;;;;5.45;4.20;;;23.60;83.30;;;;;;5036327;28;20107;-79
2021/06/19 04:10:17;;;;;;;5.38;3.92;;;23.70;83.50;;;;;;5036467;28;20040;-79
2021/06/19 04:12:43;;;;;;;6.05;4.82;;;23.70;83.40;;;;;;5036443;28;20041;-80
2021/06/19 04:15:11;;;;;;;5.20;3.70;;;23.70;83.40;;;;;;5037196;28;20097;-80
2021/06/19 04:17:37;;;;;;;7.20;4.50;;;23.80;83.50;;;;;;5037243;28;20039;-79
2021/06/19 04:20:05;;;;;;;6.95;4.07;;;23.80;83.50;;;;;;5036946;28;20029;-79
2021/06/19 04:22:31;;;;;;;7.78;3.90;;;23.80;83.60;;;;;;5037143;28;20141;-79
2021/06/19 04:24:56;;;;;;;6.88;4.13;;;23.90;83.70;;;;;;5036069;28;20144;-80
2021/06/19 04:27:22;;;;;;;4.07;3.65;;;24.00;83.80;;;;;;5037146;28;20121;-80
2021/06/19 04:29:48;;;;;;;4.20;3.75;;;24.00;83.70;;;;;;5036486;28;20051;-80
2021/06/19 04:32:15;;;;;;;4.15;3.60;;;24.00;83.50;;;;;;5036445;28;20200;-80
2021/06/19 04:34:41;;;;;;;5.75;4.40;;;24.00;83.30;;;;;;5036540;28;20045;-80
2021/06/19 04:37:10;;;;;;;5.13;4.45;;;24.10;83.30;;;;;;5038526;28;20120;-79
2021/06/19 04:39:44;;;;;;;4.82;3.83;;;24.10;83.60;;;;;;5039218;28;20037;-79
2021/06/19 04:42:14;;;;;;;11.82;4.07;;;24.20;83.60;;;;;;5037117;28;20651;-80
2021/06/19 04:47:24;;;;;;;4.25;3.83;;;24.20;83.30;;;;;;5037707;28;20368;-79
2021/06/19 04:49:49;;;;;;;5.13;3.97;;;24.20;83.10;;;;;;5036880;28;20048;-80
2021/06/19 04:52:15;;;;;;;4.57;4.18;;;24.30;83.30;;;;;;5036424;28;20045;-79
2021/06/19 04:54:40;;;;;;;5.50;4.38;;;24.30;83.20;;;;;;5036944;28;20204;-79
2021/06/19 04:57:06;;;;;;;5.28;3.90;;;24.30;83.00;;;;;;5037188;28;20271;-80
2021/06/19 04:59:33;;;;;;;10.45;3.85;;;24.40;82.90;;;;;;5036520;28;20108;-79
2021/06/19 05:01:59;;;;;;;4.30;3.90;;;24.40;82.80;;;;;;5036535;28;20349;-80
2021/06/19 05:04:25;;;;;;;4.25;3.83;;;24.50;82.90;;;;;;5035465;28;20037;-80
2021/06/19 05:06:50;;;;;;;4.70;3.92;;;24.50;83.00;;;;;;5035632;28;20051;-80
2021/06/19 05:09:16;;;;;;;4.43;3.67;;;24.60;83.30;;;;;;5036507;28;20064;-81
2021/06/19 05:11:41;;;;;;;4.32;3.90;;;24.70;83.20;;;;;;5035692;28;20045;-80
2021/06/19 05:14:07;;;;;;;8.65;4.07;;;24.70;83.20;;;;;;5036671;28;20407;-80
2021/06/19 05:16:32;;;;;;;5.50;4.10;;;24.80;82.50;;;;;;5035403;28;20132;-80
2021/06/19 05:18:58;;;;;;;7.22;4.40;;;24.80;82.50;;;;;;5036446;28;20033;-80
2021/06/19 05:21:23;;;;;;;4.00;3.28;;;24.90;81.80;;;;;;5035731;28;20128;-80
2021/06/19 05:23:49;;;;;;;4.75;4.25;;;24.90;81.80;;;;;;5035424;28;20138;-80
2021/06/19 05:26:14;;;;;;;5.35;3.50;;;25.00;81.80;;;;;;5035773;28;20073;-80
2021/06/19 05:28:40;;;;;;;8.57;4.43;;;25.10;81.70;;;;;;5036222;28;20034;-80
2021/06/19 05:31:06;;;;;;;4.15;3.42;;;25.10;81.80;;;;;;5036066;28;20121;-81
2021/06/19 05:33:32;;;;;;;5.88;3.95;;;25.20;81.00;;;;;;5035012;28;20317;-80
2021/06/19 05:35:57;;;;;;;5.28;4.20;;;25.30;80.60;;;;;;5035271;28;20042;-80
2021/06/19 05:38:23;;;;;;;4.95;3.97;;;25.30;79.80;;;;;;5035939;28;20190;-81
2021/06/19 05:40:48;;;;;;;5.40;3.72;;;25.40;79.60;;;;;;5036181;28;20033;-80
2021/06/19 05:43:14;;;;;;;5.10;4.55;;;25.40;80.00;;;;;;5035112;28;20045;-79
2021/06/19 05:45:39;;;;;;;7.82;3.92;;;25.50;79.40;;;;;;5034471;28;20087;-80
2021/06/19 05:48:05;;;;;;;5.07;4.50;;;25.50;79.10;;;;;;5036244;28;20049;-80
2021/06/19 05:50:31;;;;;;;7.90;4.03;;;25.50;78.90;;;;;;5035731;28;20076;-80
2021/06/19 05:52:56;;;;;;;8.05;4.50;;;25.60;78.70;;;;;;5035561;28;20041;-80
2021/06/19 05:55:22;;;;;;;5.75;3.85;;;25.60;78.30;;;;;;5035884;28;20043;-80
2021/06/19 05:57:48;;;;;;;6.00;3.88;;;25.70;78.20;;;;;;5035759;28;20037;-81
2021/06/19 06:00:14;;;;;;;5.75;4.00;;;25.80;78.50;;;;;;5035572;28;20069;-80
2021/06/19 06:02:41;;;;;;;8.15;4.40;;;25.80;78.10;;;;;;5034938;28;20048;-79
2021/06/19 06:05:07;;;;;;;4.93;4.28;;;25.90;77.40;;;;;;5034837;28;20365;-79
2021/06/19 06:07:33;;;;;;;5.63;4.30;;;26.00;77.80;;;;;;5035478;28;20091;-79
2021/06/19 06:09:58;;;;;;;6.95;3.90;;;26.00;77.20;;;;;;5036007;28;20045;-79
2021/06/19 06:12:24;;;;;;;8.48;3.60;;;26.10;77.20;;;;;;5034482;28;20094;-79
2021/06/19 06:14:49;;;;;;;4.03;3.63;;;26.30;77.00;;;;;;5034849;28;20049;-78
2021/06/19 06:17:15;;;;;;;5.95;4.00;;;26.40;75.10;;;;;;5035848;28;20041;-79
2021/06/19 06:19:40;;;;;;;4.63;3.67;;;26.50;75.00;;;;;;5035091;28;20547;-79
2021/06/19 06:22:06;;;;;;;4.05;3.53;;;26.70;75.20;;;;;;5035572;28;20042;-79
2021/06/19 06:24:32;;;;;;;5.55;3.42;;;26.90;75.70;;;;;;5035672;28;20048;-79
2021/06/19 06:26:58;;;;;;;4.60;3.80;;;27.10;75.30;;;;;;5035668;28;20049;-79
2021/06/19 06:29:23;;;;;;;4.35;3.80;;;27.30;73.90;;;;;;5039026;28;20056;-79
2021/06/19 06:31:50;;;;;;;8.20;4.22;;;27.40;73.50;;;;;;5038560;28;20037;-78
2021/06/19 06:34:17;;;;;;;7.45;3.60;;;27.60;73.30;;;;;;5039130;28;20037;-80
2021/06/19 06:36:43;;;;;;;9.30;3.65;;;27.60;72.90;;;;;;5038342;28;20033;-80
2021/06/19 06:39:08;;;;;;;8.45;3.85;;;27.60;73.60;;;;;;5038360;28;20038;-80
2021/06/19 06:41:35;;;;;;;7.43;3.97;;;27.60;73.10;;;;;;5039106;28;20069;-80
2021/06/19 06:44:00;;;;;;;6.15;3.53;;;27.60;73.50;;;;;;5039341;28;20107;-80
2021/06/19 06:46:26;;;;;;;6.30;4.15;;;27.60;73.40;;;;;;5038796;28;20037;-79
2021/06/19 06:48:51;;;;;;;5.43;4.13;;;27.50;73.20;;;;;;5039056;28;20037;-79
2021/06/19 06:51:17;;;;;;;8.95;3.97;;;27.50;73.50;;;;;;5039252;28;20053;-79
2021/06/19 06:53:43;;;;;;;4.57;3.88;;;27.50;73.20;;;;;;5037797;28;20037;-79
2021/06/19 06:56:08;;;;;;;5.40;3.58;;;27.50;72.90;;;;;;5038130;28;20033;-79
2021/06/19 06:58:34;;;;;;;6.32;3.80;;;27.60;72.40;;;;;;5037938;28;20484;-79
2021/06/19 07:01:00;;;;;;;5.10;4.03;;;27.60;72.70;;;;;;5038644;28;20071;-80
2021/06/19 07:03:26;;;;;;;5.75;3.80;;;27.60;72.40;;;;;;5038372;28;20041;-80
2021/06/19 07:05:51;;;;;;;4.70;3.88;;;27.70;73.70;;;;;;5037567;28;20045;-79
2021/06/19 07:08:17;;;;;;;5.03;4.25;;;27.70;73.10;;;;;;5037644;28;20041;-79
2021/06/19 07:10:42;;;;;;;4.13;3.72;;;27.90;73.10;;;;;;5037794;28;20037;-81
2021/06/19 07:13:08;;;;;;;4.65;3.78;;;27.90;72.90;;;;;;5038468;28;20113;-79
2021/06/19 07:15:34;;;;;;;7.82;4.50;;;28.00;73.80;;;;;;5038059;28;20037;-81
2021/06/19 07:17:59;;;;;;;6.57;4.28;;;28.00;73.80;;;;;;5038201;28;20041;-80
2021/06/19 07:20:25;;;;;;;4.50;4.10;;;28.10;73.10;;;;;;5037272;28;20361;-79
2021/06/19 07:22:50;;;;;;;4.35;3.60;;;28.10;73.20;;;;;;5038403;28;20403;-79
2021/06/19 07:25:16;;;;;;;4.35;3.95;;;28.20;72.50;;;;;;5039098;28;20045;-80
2021/06/19 07:27:42;;;;;;;5.63;3.60;;;28.30;71.20;;;;;;5038314;28;20056;-79
2021/06/19 07:30:10;;;;;;;5.72;3.42;;;28.40;72.70;;;;;;5038398;28;20041;-78
2021/06/19 07:32:36;;;;;;;6.55;3.78;;;28.60;71.20;;;;;;5037899;28;20045;-79
2021/06/19 07:35:04;;;;;;;4.75;3.85;;;28.80;70.90;;;;;;5038569;28;20065;-80
2021/06/19 07:37:30;;;;;;;4.75;3.88;;;28.90;69.40;;;;;;5038020;28;20136;-81
2021/06/19 07:39:55;;;;;;;5.50;3.70;;;29.00;69.80;;;;;;5037467;28;20112;-79
2021/06/19 07:42:22;;;;;;;7.90;3.47;;;29.20;69.00;;;;;;5038674;28;20361;-80
2021/06/19 07:44:47;;;;;;;5.50;3.70;;;29.30;69.50;;;;;;5037949;28;20056;-79
2021/06/19 07:47:13;;;;;;;5.00;3.70;;;29.50;68.50;;;;;;5037346;28;20120;-80
2021/06/19 07:49:38;;;;;;;5.10;4.00;;;29.60;69.00;;;;;;5037405;28;20421;-80
2021/06/19 07:52:04;;;;;;;5.20;3.60;;;29.70;68.50;;;;;;5037128;28;20033;-80
2021/06/19 07:54:30;;;;;;;3.38;3.08;;;29.70;67.70;;;;;;5037245;28;20171;-80
2021/06/19 07:56:55;;;;;;;4.38;3.67;;;29.80;68.30;;;;;;5037275;28;20037;-80
2021/06/19 07:59:21;;;;;;;3.58;3.25;;;29.90;70.20;;;;;;5037118;28;20088;-80
2021/06/19 08:01:46;;;;;;;6.03;3.67;;;30.00;68.90;;;;;;5037540;28;20048;-80
2021/06/19 08:04:12;;;;;;;7.60;3.80;;;30.20;69.30;;;;;;5036814;28;20041;-80
2021/06/19 08:06:38;;;;;;;3.40;3.10;;;30.30;68.10;;;;;;5036465;28;20397;-80
2021/06/19 08:09:04;;;;;;;6.65;4.13;;;30.30;68.90;;;;;;5037484;28;20120;-80
2021/06/19 08:11:29;;;;;;;7.07;3.65;;;30.40;67.40;;;;;;5036357;28;20263;-79
2021/06/19 08:13:55;;;;;;;4.15;3.53;;;30.60;68.30;;;;;;5036910;28;20351;-80
2021/06/19 08:16:21;;;;;;;4.80;3.80;;;30.70;67.70;;;;;;5037415;28;20039;-81
2021/06/19 08:18:47;;;;;;;5.38;4.03;;;30.80;66.40;;;;;;5036172;28;20040;-80
2021/06/19 08:21:22;;;;;;;6.13;3.63;;;30.90;66.30;;;;;;5036247;28;20143;-80
2021/06/19 08:23:48;;;;;;;11.63;4.38;;;30.90;66.70;;;;;;5037178;28;20041;-82
2021/06/19 08:26:13;;;;;;;7.03;3.60;;;31.00;69.00;;;;;;5036828;28;20044;-80
2021/06/19 08:28:38;;;;;;;6.00;3.67;;;31.10;68.30;;;;;;5036754;28;20037;-80
2021/06/19 08:31:04;;;;;;;4.80;3.63;;;31.30;67.30;;;;;;5037161;28;20471;-80
2021/06/19 08:33:31;;;;;;;6.95;3.90;;;31.40;68.00;;;;;;5036949;28;20086;-80
2021/06/19 08:35:56;;;;;;;4.10;3.67;;;31.60;67.20;;;;;;5037099;28;20077;-80
2021/06/19 08:38:22;;;;;;;4.68;4.05;;;31.70;67.10;;;;;;5036765;28;20057;-81
2021/06/19 08:40:48;;;;;;;6.82;3.53;;;31.80;66.20;;;;;;5036396;28;20046;-81
2021/06/19 08:43:14;;;;;;;4.53;3.90;;;31.90;65.90;;;;;;5036478;28;20045;-81
2021/06/19 08:45:40;;;;;;;6.18;3.97;;;32.10;67.60;;;;;;5035758;28;20081;-79
2021/06/19 08:48:06;;;;;;;4.60;3.67;;;32.20;67.00;;;;;;5036675;28;20444;-80
2021/06/19 08:50:32;;;;;;;7.18;3.78;;;32.40;64.40;;;;;;5036761;28;20048;-80
2021/06/19 08:52:59;;;;;;;6.88;3.70;;;32.60;65.10;;;;;;5036458;28;20052;-80
2021/06/19 08:55:25;;;;;;;4.32;3.90;;;32.70;63.50;;;;;;5037076;28;20029;-80
2021/06/19 08:57:51;;;;;;;6.03;3.47;;;32.90;63.90;;;;;;5035813;28;20036;-80
2021/06/19 09:00:18;;;;;;;10.80;3.75;;;33.00;65.10;;;;;;5036390;28;20073;-80
2021/06/19 09:02:46;;;;;;;6.10;3.75;;;33.20;64.90;;;;;;5035282;28;20047;-80
2021/06/19 09:05:14;;;;;;;4.50;3.40;;;33.30;64.40;;;;;;5036377;28;20300;-81
2021/06/19 09:07:50;;;;;;;4.43;3.83;;;33.50;64.60;;;;;;5035652;28;20438;-80
2021/06/19 09:10:21;;;;;;;7.22;3.55;;;33.60;62.30;;;;;;5035851;28;20045;-80
2021/06/19 09:13:01;;;;;;;8.40;4.45;;;33.60;62.70;;;;;;5036216;28;20056;-79
2021/06/19 09:15:28;;;;;;;5.18;3.75;;;33.50;62.30;;;;;;5035270;28;20424;-80
2021/06/19 09:18:06;;;;;;;5.75;3.28;;;33.40;62.20;;;;;;5035826;28;20053;-79
2021/06/19 09:20:53;;;;;;;4.70;3.67;;;33.40;62.20;;;;;;5036122;28;20129;-79
2021/06/19 09:23:31;;;;;;;9.27;3.47;;;33.40;65.30;;;;;;5036363;28;20450;-79
2021/06/19 09:26:11;;;;;;;3.80;3.08;;;33.40;64.20;;;;;;5035155;28;20045;-79
2021/06/19 09:28:56;;;;;;;4.53;3.38;;;33.50;64.90;;;;;;5036330;28;20048;-79
2021/06/19 09:31:48;;;;;;;8.15;3.70;;;33.50;61.50;;;;;;5035068;28;20041;-79
2021/06/19 09:34:22;;;;;;;5.50;3.50;;;33.40;61.70;;;;;;5035265;28;20091;-79
2021/06/19 09:36:54;;;;;;;7.32;3.80;;;33.30;62.40;;;;;;5034558;28;20033;-80
2021/06/19 09:39:29;;;;;;;4.68;3.53;;;33.40;62.00;;;;;;5036489;28;20040;-80
2021/06/19 09:41:56;;;;;;;4.72;3.80;;;33.40;61.40;;;;;;5035546;28;20041;-80
2021/06/19 09:44:49;;;;;;;7.03;3.28;;;33.40;59.90;;;;;;5036550;28;20052;-80
2021/06/19 09:47:18;;;;;;;4.82;3.25;;;33.60;59.50;;;;;;5035115;28;20041;-80
2021/06/19 09:49:46;;;;;;;4.78;3.70;;;33.60;59.80;;;;;;5035042;28;20048;-80
2021/06/19 09:52:13;;;;;;;6.82;3.42;;;33.70;59.70;;;;;;5034480;28;20052;-79
2021/06/19 09:54:40;;;;;;;4.22;3.53;;;33.70;59.60;;;;;;5036004;28;20064;-80
2021/06/19 09:57:08;;;;;;;4.82;3.70;;;33.80;59.40;;;;;;5035149;28;20045;-79
2021/06/19 09:59:36;;;;;;;5.05;3.22;;;34.00;60.00;;;;;;5035329;28;20033;-80
2021/06/19 10:02:03;;;;;;;5.68;3.63;;;34.00;57.30;;;;;;5035819;28;20405;-79
2021/06/19 10:04:31;;;;;;;4.60;3.40;;;34.00;58.90;;;;;;5039912;28;20096;-80
2021/06/19 10:06:57;;;;;;;4.15;2.88;;;34.00;59.40;;;;;;5055482;28;20071;-80
2021/06/19 10:09:23;;;;;;;5.13;3.53;;;34.00;60.50;;;;;;5038918;28;20030;-79
2021/06/19 10:11:54;;;;;;;4.85;3.72;;;33.90;58.40;;;;;;5039230;28;20235;-80
2021/06/19 10:14:23;;;;;;;5.20;4.20;;;33.70;60.00;;;;;;5040968;28;20108;-79
2021/06/19 10:16:51;;;;;;;4.00;3.60;;;33.70;59.20;;;;;;5040387;28;20044;-80
2021/06/19 10:19:19;;;;;;;6.15;4.20;;;33.60;59.50;;;;;;5038930;28;20317;-81
2021/06/19 10:21:46;;;;;;;6.78;4.05;;;33.60;60.80;;;;;;5039441;28;20073;-81
2021/06/19 10:24:13;;;;;;;8.65;4.00;;;33.60;59.80;;;;;;5039872;28;20048;-81
2021/06/19 10:26:39;;;;;;;6.28;3.70;;;33.60;59.80;;;;;;5041174;28;20064;-81
2021/06/19 10:29:06;;;;;;;5.00;3.30;;;33.60;60.30;;;;;;5041020;28;20075;-81
2021/06/19 10:31:44;;;;;;;4.35;3.95;;;33.70;59.10;;;;;;5039270;28;20052;-80
2021/06/19 10:34:26;;;;;;;4.80;4.20;;;33.80;58.10;;;;;;5039295;28;20091;-80
2021/06/19 10:37:03;;;;;;;4.00;3.38;;;33.90;57.60;;;;;;5038528;28;20071;-81
2021/06/19 10:39:41;;;;;;;6.95;3.50;;;34.00;57.00;;;;;;5039099;28;20029;-81
2021/06/19 10:42:25;;;;;;;4.93;3.60;;;34.20;57.00;;;;;;5039259;28;20041;-80
2021/06/19 10:44:59;;;;;;;8.13;3.35;;;34.30;57.40;;;;;;5037917;28;20059;-80
2021/06/19 10:47:30;;;;;;;4.40;3.90;;;34.40;57.90;;;;;;5038991;28;20396;-81
2021/06/19 10:49:56;;;;;;;5.68;4.50;;;34.40;56.70;;;;;;5038865;28;20079;-81
2021/06/19 10:52:31;;;;;;;8.25;4.22;;;34.50;56.80;;;;;;5038783;28;20368;-79
2021/06/19 10:55:19;;;;;;;8.27;4.13;;;34.50;56.70;;;;;;5038616;28;20408;-80
2021/06/19 10:57:51;;;;;;;7.40;3.70;;;34.60;58.00;;;;;;5039175;28;20546;-80
2021/06/19 11:00:45;;;;;;;10.45;4.30;;;34.60;57.20;;;;;;5038090;28;20043;-80
2021/06/19 11:03:12;;;;;;;4.07;3.78;;;34.70;58.60;;;;;;5038609;28;20041;-80
2021/06/19 11:05:40;;;;;;;4.55;3.50;;;34.80;57.20;;;;;;5038713;28;20041;-80
2021/06/19 11:08:07;;;;;;;5.43;3.58;;;34.70;57.20;;;;;;5038606;28;20041;-80
2021/06/19 11:10:50;;;;;;;4.13;3.78;;;34.60;57.60;;;;;;5039124;28;20392;-80
2021/06/19 11:13:28;;;;;;;6.68;3.80;;;34.50;58.50;;;;;;5037056;28;20049;-80
2021/06/19 11:16:02;;;;;;;8.23;4.50;;;34.50;60.40;;;;;;5037747;28;20045;-80
2021/06/19 11:18:52;;;;;;;7.15;4.18;;;34.50;58.30;;;;;;5038155;28;20056;-80
2021/06/19 11:21:19;;;;;;;5.15;3.97;;;34.60;60.10;;;;;;5037417;28;20061;-80
2021/06/19 11:24:00;;;;;;;8.23;3.80;;;34.70;58.80;;;;;;5038343;28;20053;-80
2021/06/19 11:27:00;;;;;;;5.55;4.00;;;34.90;58.40;;;;;;5038659;28;20052;-80
2021/06/19 11:29:37;;;;;;;7.07;5.10;;;34.90;57.90;;;;;;5038113;28;20497;-80
2021/06/19 11:32:25;;;;;;;6.82;3.47;;;34.90;59.40;;;;;;5037455;28;20045;-80
2021/06/19 11:34:57;;;;;;;9.80;5.38;;;34.90;58.00;;;;;;5037357;28;20047;-80
2021/06/19 11:37:22;;;;;;;6.70;3.92;;;34.90;59.90;;;;;;5037827;28;20025;-80
2021/06/19 11:39:48;;;;;;;4.88;3.85;;;35.00;56.30;;;;;;5037025;28;20053;-80
2021/06/19 11:42:15;;;;;;;10.45;3.75;;;35.10;57.70;;;;;;5038208;28;20041;-80
2021/06/19 11:44:46;;;;;;;6.07;3.80;;;35.30;58.40;;;;;;5038089;28;20045;-80
2021/06/19 11:47:13;;;;;;;7.83;4.30;;;35.50;56.80;;;;;;5037245;28;20552;-80
2021/06/19 11:49:41;;;;;;;6.85;4.18;;;35.70;56.00;;;;;;5037911;28;20087;-79
2021/06/19 11:52:10;;;;;;;10.75;3.80;;;35.70;54.70;;;;;;5037348;28;20030;-79
2021/06/19 11:54:44;;;;;;;7.80;3.75;;;35.70;53.70;;;;;;5037484;28;20033;-80
2021/06/19 11:57:20;;;;;;;3.55;3.00;;;35.60;53.40;;;;;;5036818;28;20037;-80
2021/06/19 12:00:10;;;;;;;4.80;3.50;;;35.40;53.10;;;;;;5036812;28;20044;-80
2021/06/19 12:02:36;;;;;;;8.52;4.15;;;35.20;55.90;;;;;;5037658;28;20056;-79
2021/06/19 12:05:12;;;;;;;9.32;4.38;;;35.20;54.50;;;;;;5037447;28;20045;-79
2021/06/19 12:07:38;;;;;;;7.32;3.58;;;35.00;54.00;;;;;;5036267;28;20037;-79
2021/06/19 12:10:39;;;;;;;;;;;;;;;;;;;;;
2021/06/19 12:13:07;;;;;;;6.82;4.07;;;34.80;55.10;;;;;;5037102;28;20033;-80
2021/06/19 12:15:34;;;;;;;9.23;4.63;;;34.70;55.90;;;;;;5037295;28;20495;-80
2021/06/19 12:18:01;;;;;;;8.98;3.83;;;34.60;56.40;;;;;;5037447;28;20387;-80
2021/06/19 12:20:27;;;;;;;5.05;3.53;;;34.80;59.30;;;;;;5036742;28;20111;-80
2021/06/19 12:22:53;;;;;;;8.20;3.90;;;35.00;55.30;;;;;;5037228;28;20309;-80
2021/06/19 12:25:34;;;;;;;8.45;4.10;;;35.20;56.50;;;;;;5036369;28;20037;-80
2021/06/19 12:28:01;;;;;;;12.98;4.28;;;35.60;55.50;;;;;;5037264;28;20076;-80
2021/06/19 12:30:26;;;;;;;9.05;3.60;;;35.80;54.40;;;;;;5036029;28;20065;-79
2021/06/19 12:32:52;;;;;;;7.07;3.53;;;36.10;54.60;;;;;;5036848;28;20076;-80
2021/06/19 12:35:20;;;;;;;7.35;3.50;;;36.40;53.90;;;;;;5036047;28;20045;-80
2021/06/19 12:37:59;;;;;;;7.05;3.53;;;36.60;51.70;;;;;;5035988;28;20151;-80
2021/06/19 12:40:31;;;;;;;5.40;3.65;;;36.70;53.80;;;;;;5037513;28;20107;-80
2021/06/19 12:42:59;;;;;;;6.15;3.97;;;36.70;53.00;;;;;;5035821;28;20288;-80
2021/06/19 12:45:47;;;;;;;6.85;3.65;;;36.70;53.10;;;;;;5037201;28;20095;-80
2021/06/19 12:48:24;;;;;;;8.23;3.80;;;36.60;53.80;;;;;;5036287;28;20431;-80
2021/06/19 12:50:55;;;;;;;7.68;3.97;;;36.40;52.50;;;;;;5036188;28;20112;-81
2021/06/19 12:53:34;;;;;;;11.65;3.85;;;36.40;53.60;;;;;;5035768;28;20049;-80
2021/06/19 12:56:11;;;;;;;8.48;4.00;;;36.30;53.90;;;;;;5036949;28;20033;-80